White Lake, Michigan
Current Conditions -  °F | °C
As of 8:07 AM on Sunday 23 Nov 2014 (Local Time) from KPTK Reporting Station
Haze Haze  
Wind Chill: 40°   Ceiling: 800
Heat Index: 45°   Visibility: 6mi
Dew Point: 41°   Wind: 9mph
Humidity: 86%   Direction: 190°S
Pressure: 29.9"   Gusts: NA
Location:  42.69°N, 83.55°W
Report Text: KPTK 231307Z 19008KT 6SM BR BKN008 BKN017 OVC028 07/05 A2990 RMK AO2 T00720050
Loading
Personal Weather Stations






























Interactive Weather Map New forecast layout! Learn more

10-Day Weather Forecast

Advertisements
Track Severe Weather on mobile